الصفحة الرئيسية
METAR-TAF:

METAR-TAF

مطار :

Alice Springs, أستراليا

دائرة عرض: 23-48S, خط طول: 133-53E, ارتفاع: 545 متر

مراقبة الطقس الحالي

تاريخ ووقت الإصدار 17 دقيقة قبل الساعة 15:00UTC
ريح 4 عقدة من الجنوب
درجة الحرارة 20°درجة مئوية
الرطوبة 32%
ضغط 1017 hPa
الرؤية 10 كم أو أكثر

METAR: YBAS 151500Z AUTO 19004KT 9999 // NCD 20/03 Q1017

زمن: 00:47 (15:17 UTC)

توقعات

تاريخ ووقت الإصدار 4ساعات و 15 دقيقة قبل الساعة 11:02UTC
التوقعات صالحة من15 الساعة 12 UTC إلى 16 الساعة 12 UTC
ريح 8 عقدة من الجنوب
الرؤية 10 كم أو أكثر
الغيوم لا تقل 1500 م ولا وجود لمزنة ركامية السحاب الأسود
من 15 الساعة 2300 UTC
ريح 14 عقدة من الجنوب الشرقي
الرؤية 10 كم أو أكثر
الغيوم لا تقل 1500 م ولا وجود لمزنة ركامية السحاب الأسود
من 16 الساعة 0900 UTC
ريح 7 عقدة من الجنوب/الجنوب الشرقي
الرؤية 10 كم أو أكثر
الغيوم لا تقل 1500 م ولا وجود لمزنة ركامية السحاب الأسود

TAF: YBAS 151102Z 1512/1612 17008KT CAVOK FM152300 14014KT CAVOK FM160900 15007KT CAVOK

أرصاد الطقس والتوقعات من أكثر من 4000 مطار (تقارير الطقس للمطار METAR والتنبؤ بالطقس بالمطارTAF).

المحطات المتاحة هي النقط الصفراء والحمراء على الخريطة.

حرك المؤشر فوق النقطة لمعرفة اسم المحطة.

ثم انقر لمعرفة أرصاد وتوقعات الطقس.

لتغيير الخارطة: اضغط على الأزرار الخضراء مع رمز الصليب الأسود للتكبير. على الزر الأخضر مع شرطة للتصغير، أو على الأسهم الخضراء للخرائط المجاورة.


METAR-TAF: